createdAt,value
2022-09-12T00:02:23.565Z,4.00
2022-09-12T00:04:51.491Z,5.90
2022-09-12T00:07:19.500Z,5.43
2022-09-12T00:14:29.289Z,5.03
2022-09-12T00:16:58.907Z,5.43
2022-09-12T00:19:26.658Z,5.57
2022-09-12T00:21:54.470Z,6.13
2022-09-12T00:24:21.602Z,6.23
2022-09-12T00:26:48.844Z,5.73
2022-09-12T00:29:19.514Z,5.43
2022-09-12T00:35:57.000Z,6.97
2022-09-12T00:38:24.392Z,5.47
2022-09-12T00:40:51.493Z,6.70
2022-09-12T00:43:37.071Z,6.13
2022-09-12T00:46:35.484Z,6.83
2022-09-12T00:49:06.042Z,7.13
2022-09-12T00:54:34.085Z,7.33
2022-09-12T00:57:05.445Z,7.00
2022-09-12T00:59:39.772Z,7.93
2022-09-12T01:02:08.167Z,7.83
2022-09-12T01:04:38.763Z,9.00
2022-09-12T01:07:08.274Z,8.87
2022-09-12T01:09:38.617Z,6.87
2022-09-12T01:20:52.205Z,8.50
2022-09-12T01:23:54.412Z,9.37
2022-09-12T01:26:57.203Z,8.40
2022-09-12T01:29:55.044Z,8.07
2022-09-12T01:32:35.684Z,9.33
2022-09-12T01:35:12.004Z,8.23
2022-09-12T01:42:51.833Z,9.10
2022-09-12T01:45:26.176Z,8.23
2022-09-12T01:47:59.853Z,9.47
2022-09-12T01:50:31.243Z,9.27
2022-09-12T01:53:03.883Z,9.73
2022-09-12T01:55:36.925Z,9.37
2022-09-12T01:58:08.083Z,9.53
2022-09-12T02:06:18.126Z,8.87
2022-09-12T02:08:49.375Z,10.37
2022-09-12T02:11:16.702Z,10.07
2022-09-12T02:13:47.374Z,9.40
2022-09-12T02:16:19.848Z,9.87
2022-09-12T02:18:52.226Z,9.20
2022-09-12T02:21:22.853Z,9.67
2022-09-12T02:23:58.486Z,9.37
2022-09-12T02:34:10.382Z,9.17
2022-09-12T02:36:49.496Z,10.03
2022-09-12T02:39:19.542Z,8.73
2022-09-12T02:41:47.385Z,10.07
2022-09-12T02:44:14.642Z,9.87
2022-09-12T02:46:45.374Z,10.33
2022-09-12T02:49:14.065Z,9.50
2022-09-12T02:51:41.324Z,10.37
2022-09-12T02:59:18.594Z,10.47
2022-09-12T03:01:59.938Z,11.00
2022-09-12T03:04:48.385Z,9.93
2022-09-12T03:07:22.714Z,9.93
2022-09-12T03:09:59.034Z,10.30
2022-09-12T03:12:43.922Z,11.07
2022-09-12T03:23:38.645Z,11.17
2022-09-12T03:26:13.432Z,11.40
2022-09-12T03:28:51.383Z,11.27
2022-09-12T03:31:20.257Z,11.43
2022-09-12T03:33:49.854Z,11.00
2022-09-12T03:36:28.872Z,11.17
2022-09-12T03:38:57.642Z,11.03
2022-09-12T03:47:09.253Z,10.60
2022-09-12T03:49:38.673Z,11.07
2022-09-12T03:52:06.281Z,10.70
2022-09-12T03:54:34.107Z,11.33
2022-09-12T03:57:01.952Z,9.57
2022-09-12T03:59:29.377Z,10.03
2022-09-12T04:01:57.316Z,11.70
2022-09-12T04:07:05.072Z,10.80
2022-09-12T04:09:32.986Z,11.33
2022-09-12T04:12:00.535Z,11.40
2022-09-12T04:14:28.625Z,12.20
2022-09-12T04:16:56.218Z,9.90
2022-09-12T04:19:23.212Z,8.57
2022-09-12T04:21:50.764Z,6.60
2022-09-12T04:32:00.733Z,6.80
2022-09-12T04:34:32.082Z,5.90
2022-09-12T04:37:01.067Z,6.57
2022-09-12T04:39:28.434Z,7.93
2022-09-12T04:41:56.015Z,6.30
2022-09-12T04:44:23.842Z,6.77
2022-09-12T04:46:52.283Z,6.97
2022-09-12T04:49:20.262Z,7.67
2022-09-12T04:54:27.123Z,6.60
2022-09-12T04:56:55.565Z,7.70
2022-09-12T04:59:23.624Z,8.07
2022-09-12T05:01:50.821Z,6.40
2022-09-12T05:04:18.305Z,7.73
2022-09-12T05:06:46.855Z,7.40
2022-09-12T05:09:15.344Z,8.17
2022-09-12T05:12:04.187Z,7.83
2022-09-12T05:32:22.843Z,6.77
2022-09-12T05:34:50.606Z,7.67
2022-09-12T05:37:17.964Z,7.73
2022-09-12T05:39:45.733Z,7.13
2022-09-12T05:42:13.282Z,6.90
2022-09-12T05:44:40.493Z,6.83
2022-09-12T05:47:08.073Z,6.37
2022-09-12T05:58:03.112Z,8.50
2022-09-12T06:00:33.419Z,7.83
2022-09-12T06:03:01.384Z,7.97
2022-09-12T06:05:28.997Z,7.13
2022-09-12T06:07:57.464Z,8.00
2022-09-12T06:10:25.825Z,8.93
2022-09-12T06:12:53.596Z,8.57
2022-09-12T06:15:22.852Z,10.27
2022-09-12T06:22:54.436Z,10.27
2022-09-12T06:25:22.154Z,9.93
2022-09-12T06:27:49.782Z,10.70
2022-09-12T06:30:25.216Z,10.00
2022-09-12T06:32:53.273Z,10.57
2022-09-12T06:35:21.362Z,9.30
2022-09-12T06:37:48.714Z,8.73
2022-09-12T06:40:17.669Z,9.67
2022-09-12T06:47:50.913Z,6.40
2022-09-12T06:50:18.634Z,6.00
2022-09-12T06:52:51.333Z,6.83
2022-09-12T06:55:20.983Z,6.93
2022-09-12T06:57:50.104Z,6.80
2022-09-12T07:00:18.432Z,6.83
2022-09-12T07:02:46.212Z,7.23
2022-09-12T07:05:14.813Z,8.83
2022-09-12T07:10:40.392Z,9.47
2022-09-12T07:13:07.974Z,8.60
2022-09-12T07:15:36.272Z,7.57
2022-09-12T07:18:03.713Z,8.27
2022-09-12T07:20:32.635Z,8.03
2022-09-12T07:23:00.106Z,7.50
2022-09-12T07:25:28.153Z,8.10
2022-09-12T07:27:56.172Z,6.20
2022-09-12T07:30:24.344Z,6.33
2022-09-12T07:37:57.144Z,7.50
2022-09-12T07:40:24.537Z,8.47
2022-09-12T07:42:51.722Z,9.20
2022-09-12T07:45:19.098Z,7.97
2022-09-12T07:47:46.210Z,9.43
2022-09-12T07:50:13.575Z,9.17
2022-09-12T07:52:41.211Z,8.07
2022-09-12T08:03:25.152Z,7.10
2022-09-12T08:05:55.893Z,7.53
2022-09-12T08:08:23.665Z,7.73
2022-09-12T08:10:57.034Z,7.80
2022-09-12T08:13:24.571Z,9.07
2022-09-12T08:15:51.833Z,8.57
2022-09-12T08:18:18.871Z,7.83
2022-09-12T08:26:21.302Z,7.27
2022-09-12T08:28:49.467Z,7.07
2022-09-12T08:31:18.617Z,8.20
2022-09-12T08:33:46.482Z,7.27
2022-09-12T08:36:15.952Z,7.80
2022-09-12T08:38:45.184Z,7.57
2022-09-12T08:41:22.774Z,7.10
2022-09-12T08:52:23.162Z,6.90
2022-09-12T08:55:08.824Z,7.40
2022-09-12T08:58:20.532Z,8.53
2022-09-12T09:04:32.957Z,6.67
2022-09-12T09:07:20.402Z,6.70
2022-09-12T09:10:17.872Z,6.00
2022-09-12T09:17:50.316Z,6.40
2022-09-12T09:20:29.164Z,6.13
2022-09-12T09:23:01.831Z,5.90
2022-09-12T09:25:43.791Z,6.37
2022-09-12T09:28:18.395Z,5.73
2022-09-12T09:30:45.907Z,5.83
2022-09-12T09:33:23.134Z,6.10
2022-09-12T09:43:06.594Z,6.47
2022-09-12T09:45:34.296Z,6.37
2022-09-12T09:48:15.834Z,5.93
2022-09-12T09:50:44.942Z,7.03
2022-09-12T09:53:26.023Z,5.37
2022-09-12T09:55:56.777Z,6.30
2022-09-12T09:58:34.931Z,6.20
2022-09-12T10:06:31.820Z,6.63
2022-09-12T10:09:26.023Z,6.47
2022-09-12T10:11:55.076Z,6.23
2022-09-12T10:14:37.982Z,6.20
2022-09-12T10:17:33.159Z,5.47
2022-09-12T10:20:21.380Z,6.13
2022-09-12T10:22:51.346Z,5.37
2022-09-12T10:30:27.871Z,6.20
2022-09-12T10:33:04.464Z,5.30
2022-09-12T10:35:44.164Z,5.70
2022-09-12T10:38:19.244Z,5.23
2022-09-12T10:40:55.694Z,7.13
2022-09-12T10:43:29.544Z,5.27
2022-09-12T10:46:24.032Z,6.23
2022-09-12T11:04:29.705Z,6.00
2022-09-12T11:07:10.704Z,6.40
2022-09-12T11:09:46.092Z,5.83
2022-09-12T11:12:20.994Z,5.93
2022-09-12T11:15:00.782Z,5.50
2022-09-12T11:17:42.777Z,4.77
2022-09-12T11:25:35.572Z,5.83
2022-09-12T11:28:29.812Z,5.40
2022-09-12T11:31:13.998Z,5.03
2022-09-12T11:33:43.615Z,4.87
2022-09-12T11:36:26.453Z,4.47
2022-09-12T11:39:03.849Z,4.90
2022-09-12T11:41:35.424Z,5.30
2022-09-12T11:44:10.444Z,4.17
2022-09-12T11:52:07.801Z,4.90
2022-09-12T11:54:40.793Z,4.20
2022-09-12T11:57:15.554Z,4.07
2022-09-12T11:59:47.411Z,4.00
2022-09-12T12:02:23.745Z,3.90
2022-09-12T12:05:03.084Z,3.47
2022-09-12T12:13:11.960Z,3.03
2022-09-12T12:15:47.359Z,2.87
2022-09-12T12:18:19.732Z,3.23
2022-09-12T12:20:47.863Z,2.90
2022-09-12T12:23:27.953Z,3.33
2022-09-12T12:25:58.592Z,3.03
2022-09-12T12:29:10.603Z,3.43
2022-09-12T12:32:34.382Z,3.47
2022-09-12T12:40:32.555Z,2.73
2022-09-12T12:43:15.783Z,2.17
2022-09-12T12:46:05.507Z,2.53
2022-09-12T12:48:56.334Z,3.20
2022-09-12T12:51:57.147Z,3.50
2022-09-12T12:54:30.074Z,2.90
2022-09-12T12:57:18.895Z,2.50
2022-09-12T13:04:51.592Z,2.97
2022-09-12T13:07:34.214Z,3.10
2022-09-12T13:10:03.172Z,3.17
2022-09-12T13:12:35.782Z,2.63
2022-09-12T13:15:25.285Z,2.37
2022-09-12T13:17:53.802Z,3.00
2022-09-12T13:20:28.252Z,3.17
2022-09-12T13:22:56.226Z,2.87
2022-09-12T13:30:35.423Z,2.87
2022-09-12T13:33:24.043Z,3.57
2022-09-12T13:36:18.744Z,3.40
2022-09-12T13:38:58.116Z,4.17
2022-09-12T13:41:42.885Z,4.10
2022-09-12T13:44:12.692Z,3.13
2022-09-12T13:46:42.145Z,3.67
2022-09-12T13:54:24.547Z,3.80
2022-09-12T13:56:51.872Z,3.03
2022-09-12T13:59:41.056Z,3.30
2022-09-12T14:02:22.764Z,3.57
2022-09-12T14:05:09.763Z,3.40
2022-09-12T14:08:14.067Z,3.80
2022-09-12T14:10:57.443Z,4.70
2022-09-12T14:24:26.692Z,3.77
2022-09-12T14:26:56.826Z,4.27
2022-09-12T14:29:25.705Z,4.57
2022-09-12T14:32:04.356Z,3.93
2022-09-12T14:34:34.410Z,4.43
2022-09-12T14:37:07.842Z,3.97
2022-09-12T14:39:40.598Z,4.50
2022-09-12T14:50:03.433Z,3.83
2022-09-12T14:52:33.761Z,4.10
2022-09-12T14:55:20.216Z,4.30
2022-09-12T14:57:50.144Z,4.30
2022-09-12T15:00:26.142Z,4.47
2022-09-12T15:02:53.900Z,4.07
2022-09-12T15:05:49.763Z,4.93
2022-09-12T15:11:44.223Z,4.83
2022-09-12T15:14:14.394Z,3.73
2022-09-12T15:16:45.117Z,3.23
2022-09-12T15:19:14.113Z,3.80
2022-09-12T15:21:41.422Z,4.30
2022-09-12T15:24:09.573Z,4.10
2022-09-12T15:26:37.724Z,4.80
2022-09-12T15:36:30.845Z,4.43
2022-09-12T15:38:59.084Z,4.07
2022-09-12T15:41:31.353Z,3.87
2022-09-12T15:43:58.952Z,4.00
2022-09-12T15:46:26.563Z,4.40
2022-09-12T15:48:55.030Z,4.17
2022-09-12T15:51:23.474Z,4.00
2022-09-12T15:53:52.954Z,4.03
2022-09-12T15:59:45.694Z,3.70
2022-09-12T16:02:13.060Z,3.60
2022-09-12T16:04:41.613Z,3.83
2022-09-12T16:07:09.109Z,4.20
2022-09-12T16:09:37.493Z,3.70
2022-09-12T16:12:05.999Z,3.53
2022-09-12T16:14:36.220Z,3.60
2022-09-12T16:25:12.562Z,3.27
2022-09-12T16:27:40.234Z,3.43
2022-09-12T16:30:10.085Z,3.40
2022-09-12T16:32:40.704Z,3.73
2022-09-12T16:35:09.131Z,3.13
2022-09-12T16:37:36.942Z,3.03
2022-09-12T16:40:05.773Z,3.53
2022-09-12T16:47:10.493Z,4.17
2022-09-12T16:49:38.492Z,3.40
2022-09-12T16:52:08.184Z,3.80
2022-09-12T16:54:35.601Z,3.40
2022-09-12T16:57:04.883Z,3.23
2022-09-12T16:59:32.255Z,3.57
2022-09-12T17:02:00.531Z,3.77
2022-09-12T17:09:32.712Z,3.70
2022-09-12T17:12:00.432Z,3.63
2022-09-12T17:14:28.295Z,2.87
2022-09-12T17:16:55.673Z,3.10
2022-09-12T17:19:25.930Z,3.20
2022-09-12T17:21:53.855Z,3.47
2022-09-12T17:24:22.782Z,2.63
2022-09-12T17:29:34.186Z,3.40
2022-09-12T17:32:02.675Z,2.93
2022-09-12T17:34:30.142Z,3.70
2022-09-12T17:36:57.981Z,3.17
2022-09-12T17:39:25.760Z,3.77
2022-09-12T17:41:57.536Z,3.33
2022-09-12T17:44:25.231Z,3.40
2022-09-12T17:52:27.516Z,3.00
2022-09-12T17:54:55.253Z,2.77
2022-09-12T17:57:22.502Z,3.33
2022-09-12T17:59:51.946Z,3.20
2022-09-12T18:02:19.999Z,2.97
2022-09-12T18:04:48.518Z,3.40
2022-09-12T18:07:19.272Z,3.60
2022-09-12T18:09:49.003Z,3.30
2022-09-12T18:17:21.544Z,3.20
2022-09-12T18:19:53.672Z,2.87
2022-09-12T18:22:21.605Z,3.40
2022-09-12T18:24:50.570Z,3.33
2022-09-12T18:27:18.204Z,3.27
2022-09-12T18:29:58.936Z,3.10
2022-09-12T18:32:34.884Z,3.73
2022-09-12T18:42:54.044Z,3.87
2022-09-12T18:45:21.600Z,3.90
2022-09-12T18:47:49.984Z,3.80
2022-09-12T18:50:18.365Z,3.93
2022-09-12T18:52:46.405Z,3.90
2022-09-12T18:55:18.983Z,3.90
2022-09-12T18:57:51.325Z,3.80
2022-09-12T19:00:21.363Z,4.07
2022-09-12T19:07:55.194Z,4.40
2022-09-12T19:10:23.275Z,3.87
2022-09-12T19:12:51.260Z,4.40
2022-09-12T19:15:20.544Z,3.83
2022-09-12T19:17:48.861Z,3.77
2022-09-12T19:20:16.851Z,4.23
2022-09-12T19:22:45.441Z,3.80
2022-09-12T19:25:15.847Z,3.63
2022-09-12T19:27:45.116Z,3.67
2022-09-12T19:35:19.568Z,3.90
2022-09-12T19:37:54.884Z,3.97
2022-09-12T19:40:23.230Z,5.00
2022-09-12T19:42:50.872Z,6.60
2022-09-12T19:45:20.662Z,3.60
2022-09-12T19:47:48.822Z,4.03
2022-09-12T19:50:17.574Z,3.67
2022-09-12T19:52:48.568Z,3.50
2022-09-12T20:00:22.343Z,3.37
2022-09-12T20:02:54.908Z,3.20
2022-09-12T20:05:22.642Z,3.17
2022-09-12T20:07:50.040Z,3.17
2022-09-12T20:10:17.504Z,3.13
2022-09-12T20:12:45.315Z,3.00
2022-09-12T20:15:13.640Z,3.90
2022-09-12T20:17:41.992Z,3.63
2022-09-12T20:25:11.445Z,3.50
2022-09-12T20:27:38.863Z,3.80
2022-09-12T20:30:07.965Z,3.40
2022-09-12T20:32:35.604Z,3.90
2022-09-12T20:35:03.174Z,4.07
2022-09-12T20:37:31.175Z,4.00
2022-09-12T20:39:59.257Z,3.00
2022-09-12T20:42:30.153Z,3.83
2022-09-12T20:50:02.366Z,3.87
2022-09-12T20:52:30.873Z,3.70
2022-09-12T20:54:58.522Z,4.00
2022-09-12T20:57:28.054Z,3.37
2022-09-12T20:59:55.284Z,3.67
2022-09-12T21:02:22.714Z,3.63
2022-09-12T21:04:50.474Z,3.70
2022-09-12T21:07:20.085Z,4.13
2022-09-12T21:14:53.102Z,3.80
2022-09-12T21:17:20.628Z,3.53
2022-09-12T21:19:48.465Z,3.87
2022-09-12T21:22:16.215Z,4.10
2022-09-12T21:24:43.834Z,3.67
2022-09-12T21:27:11.364Z,4.27
2022-09-12T21:29:40.082Z,3.80
2022-09-12T21:32:14.075Z,3.83
2022-09-12T21:39:48.763Z,4.10
2022-09-12T21:42:16.092Z,3.97
2022-09-12T21:44:44.064Z,3.90
2022-09-12T21:47:12.242Z,4.37
2022-09-12T21:49:40.002Z,4.67
2022-09-12T21:52:07.443Z,3.93
2022-09-12T21:54:35.334Z,3.80
2022-09-12T22:02:08.568Z,4.47
2022-09-12T22:04:36.033Z,4.23
2022-09-12T22:07:09.044Z,4.50
2022-09-12T22:09:36.242Z,4.13
2022-09-12T22:12:04.019Z,4.17
2022-09-12T22:14:31.616Z,3.93
2022-09-12T22:16:59.657Z,4.60
2022-09-12T22:24:32.702Z,4.87
2022-09-12T22:27:04.584Z,4.60
2022-09-12T22:29:32.355Z,5.70
2022-09-12T22:32:01.194Z,5.17
2022-09-12T22:34:31.892Z,5.20
2022-09-12T22:37:06.035Z,5.00
2022-09-12T22:39:38.804Z,5.00
2022-09-12T22:42:21.515Z,5.20
2022-09-12T22:47:27.942Z,4.60
2022-09-12T22:49:56.584Z,4.53
2022-09-12T22:52:24.494Z,4.70
2022-09-12T22:54:52.352Z,4.70
2022-09-12T22:57:19.724Z,5.40
2022-09-12T22:59:47.215Z,4.60
2022-09-12T23:02:15.213Z,5.30
2022-09-12T23:11:58.443Z,4.97
2022-09-12T23:14:25.968Z,5.67
2022-09-12T23:16:53.142Z,5.23
2022-09-12T23:19:20.464Z,4.60
2022-09-12T23:21:52.453Z,5.20
2022-09-12T23:24:19.752Z,4.30
2022-09-12T23:26:49.655Z,4.90
2022-09-12T23:32:07.633Z,5.33
2022-09-12T23:34:34.932Z,5.10
2022-09-12T23:37:02.744Z,5.37
2022-09-12T23:39:34.389Z,5.50
2022-09-12T23:42:02.647Z,5.40
2022-09-12T23:44:30.428Z,5.00
2022-09-12T23:46:58.860Z,4.80
2022-09-12T23:49:27.727Z,5.13
2022-09-12T23:55:41.558Z,5.00
2022-09-12T23:58:24.447Z,5.00
